MiSS Courtney — WDI7965 — position and weather

sailwx.info

Track history (hours):
 
Tides and Currents Weather Stations Pressure Air Temp Water Temp Dewpoint Dewpoint Depression Visibility Wind Speed Wind Dir Waves Ship Positions

MiSS Courtney

Owner: Washburn Marine Towing, LLC, morgan city, LA. More information available from US FCC via Universal Licensing System and Coast Guard Vessel Documentation Center.

Last reported at 2017-Oct-20 07:15 UTC. Time now 2017-Nov-25 02:05 UTC.
Position N 30°23' W 086°55'.
Warning: this ship's position is 35 days out of date.

Length 15 m; draft 2.5 m.

Type: Tug. MMSI: 368280000.

Date/timePositionNaut miles runAvg speedWind from/ knotsBaromVisibWave heightAir tempDewpointWater temp
2017-Oct-20 07:15N 30°23' W 086°55'2 6.1
2017-Oct-20 07:00N 30°24' W 086°53'3 6.1
2017-Oct-20 06:31N 30°24' W 086°50'3 6.2
2017-Oct-20 06:01N 30°24' W 086°46'6 5.7
2017-Oct-20 05:01N 30°24' W 086°39'3 5.8
2017-Oct-20 04:30N 30°24' W 086°36'3 5.9
2017-Oct-20 04:00N 30°25' W 086°33'3 6.6
2017-Oct-20 03:30N 30°26' W 086°29'3 6.6
2017-Oct-20 03:00N 30°26' W 086°25'3 6.5
2017-Oct-20 02:30N 30°26' W 086°21'3 6.5
2017-Oct-20 02:00N 30°26' W 086°18'3 6.3
2017-Oct-20 01:30N 30°26' W 086°14'3 6.3
2017-Oct-20 00:59N 30°24' W 086°11'3 0.2
2017-Oct-19 05:51N 30°26' W 086°14'2 5.2
2017-Oct-19 05:30N 30°27' W 086°16'3 5.5
2017-Oct-19 05:00N 30°27' W 086°19'3 5.8
2017-Oct-19 04:30N 30°26' W 086°22'3 5.9
2017-Oct-19 04:00N 30°26' W 086°26'3 5.8
2017-Oct-19 03:30N 30°26' W 086°29'3 5.8
2017-Oct-19 03:00N 30°25' W 086°32'3 5.6
2017-Oct-19 02:30N 30°24' W 086°35'3 5.8
2017-Oct-19 02:00N 30°24' W 086°39'4 5.7
2017-Oct-19 01:20N 30°24' W 086°43'2 5.6
2017-Oct-19 01:00N 30°24' W 086°45'3 5.8
2017-Oct-19 00:30N 30°24' W 086°49'3 5.9
2017-Oct-19 00:00N 30°24' W 086°52'3 5.9
2017-Oct-18 23:30N 30°23' W 086°55'  
Track history (hours):
 
Tides and Currents Weather Stations Pressure Air Temp Water Temp Dewpoint Dewpoint Depression Visibility Wind Speed Wind Dir Waves Ship Positions

MiSS Courtney

Owner: Washburn Marine Towing, LLC, morgan city, LA. More information available from US FCC via Universal Licensing System and Coast Guard Vessel Documentation Center.

Last reported at 2017-Oct-20 07:15 UTC. Time now 2017-Nov-25 02:05 UTC.
Position N 30°23' W 086°55'.
Warning: this ship's position is 35 days out of date.

Length 15 m; draft 2.5 m.

Type: Tug. MMSI: 368280000.

Date/timePositionNaut miles runAvg speedWind from/ knotsBaromVisibWave heightAir tempDewpointWater temp
2017-Oct-20 07:15N 30°23' W 086°55'2 6.1
2017-Oct-20 07:00N 30°24' W 086°53'3 6.1
2017-Oct-20 06:31N 30°24' W 086°50'3 6.2
2017-Oct-20 06:01N 30°24' W 086°46'6 5.7
2017-Oct-20 05:01N 30°24' W 086°39'3 5.8
2017-Oct-20 04:30N 30°24' W 086°36'3 5.9
2017-Oct-20 04:00N 30°25' W 086°33'3 6.6
2017-Oct-20 03:30N 30°26' W 086°29'3 6.6
2017-Oct-20 03:00N 30°26' W 086°25'3 6.5
2017-Oct-20 02:30N 30°26' W 086°21'3 6.5
2017-Oct-20 02:00N 30°26' W 086°18'3 6.3
2017-Oct-20 01:30N 30°26' W 086°14'3 6.3
2017-Oct-20 00:59N 30°24' W 086°11'3 0.2
2017-Oct-19 05:51N 30°26' W 086°14'2 5.2
2017-Oct-19 05:30N 30°27' W 086°16'3 5.5
2017-Oct-19 05:00N 30°27' W 086°19'3 5.8
2017-Oct-19 04:30N 30°26' W 086°22'3 5.9
2017-Oct-19 04:00N 30°26' W 086°26'3 5.8
2017-Oct-19 03:30N 30°26' W 086°29'3 5.8
2017-Oct-19 03:00N 30°25' W 086°32'3 5.6
2017-Oct-19 02:30N 30°24' W 086°35'3 5.8
2017-Oct-19 02:00N 30°24' W 086°39'4 5.7
2017-Oct-19 01:20N 30°24' W 086°43'2 5.6
2017-Oct-19 01:00N 30°24' W 086°45'3 5.8
2017-Oct-19 00:30N 30°24' W 086°49'3 5.9
2017-Oct-19 00:00N 30°24' W 086°52'3 5.9
2017-Oct-18 23:30N 30°23' W 086°55'  

Dump ship's entire track history